Celebrity Solstice — 9HRJ9 — position and weather

sailwx.info

Track history (hours):
 
Tides and Currents Weather Stations Pressure Air Temp Water Temp Dewpoint Dewpoint Depression Visibility Wind Speed Wind Dir Waves Ship Positions

Celebrity Solstice

Last reported at 2016-Dec-01 15:00 UTC. Time now 2016-Dec-03 19:42 UTC.
Position S 44°12' E 166°18'.

Length 317 m; draft 9 m.

Type: Passenger vessel. MMSI: 249409000.

Wind from 200 at 22 knots

Barometer 1018.0 mb
Air temperature 15.0 ° C

Date/timePositionNaut miles runAvg speedWind from/ knotsBaromVisibWave heightAir tempDewpointWater temp
2016-Dec-01 15:00S 44°12' E 166°18'21918.3 200 / 221018.0 15.0
2016-Dec-01 03:00S 43°18' E 161°24'20917.5 030 / 101019.0 14.0
2016-Nov-30 15:00S 42°24' E 156°48'22318.6 190 / 51018.0 15.0
2016-Nov-30 03:00S 41°24' E 152°00'30421.8 050 / 251013.0 17.0
2016-Nov-29 13:05S 39°22' E 145°55'1221.7
2016-Nov-29 12:33S 39°14' E 145°43'2221.7
2016-Nov-29 11:33S 38°60' E 145°23'21 0.9
2016-Nov-28 12:21S 39°03' E 145°50'1316.2
2016-Nov-28 11:33S 39°10' E 146°04'1615.7
2016-Nov-28 10:33S 39°10' E 146°25'1616.2
2016-Nov-28 09:34S 39°05' E 146°44'1616.2
2016-Nov-28 08:33S 38°60' E 147°04'1616.3
2016-Nov-28 07:33S 38°55' E 147°24'2116.2
2016-Nov-28 06:14S 38°48' E 147°50'2520.0
2016-Nov-28 05:00S 38°36' E 148°18'5014.5 230 / 181015.0 22.0
2016-Nov-28 01:32S 38°09' E 149°12'1616.3
2016-Nov-28 00:33S 37°59' E 149°28'4016.6
2016-Nov-27 22:08S 37°33' E 150°07'916.2
2016-Nov-27 21:33S 37°25' E 150°12'1616.3
2016-Nov-27 20:34S 37°09' E 150°17'1616.1
2016-Nov-27 19:33S 36°54' E 150°23'1717.2
2016-Nov-27 18:34S 36°37' E 150°30'1717.0
2016-Nov-27 17:33S 36°21' E 150°36'1526.9
2016-Nov-27 17:00S 36°06' E 150°36'50710.6 010 / 141017.0 19.0
2016-Nov-25 17:00S 34°00' E 160°36'24917.8 230 / 281014.0 19.0
2016-Nov-25 03:00S 34°06' E 165°36'47012.4 230 / 221010.0 20.0
2016-Nov-23 13:10S 35°24' E 175°00'913.6
2016-Nov-23 12:29S 35°34' E 175°01'2613.6
2016-Nov-23 10:33S 35°60' E 174°58'1413.6
2016-Nov-23 09:32S 36°13' E 174°56'1313.2
2016-Nov-23 08:33S 36°26' E 174°60'1312.9
2016-Nov-23 07:33S 36°38' E 174°56'1111.3
2016-Nov-23 06:33S 36°48' E 174°50'3 1.1
2016-Nov-23 03:30S 36°50' E 174°46'0 0.0
2016-Nov-23 02:30S 36°50' E 174°46'0 0.0
2016-Nov-23 00:06S 36°50' E 174°46'0 0.0
2016-Nov-22 23:30S 36°50' E 174°46'0 0.0
2016-Nov-22 22:18S 36°50' E 174°46'0 0.0
2016-Nov-22 20:33S 36°50' E 174°46'5 4.5
2016-Nov-22 19:28S 36°46' E 174°49'1910.1
2016-Nov-22 17:34S 36°32' E 175°05'1310.3
2016-Nov-22 16:21S 36°23' E 175°16'8 9.2
2016-Nov-22 15:28S 36°23' E 175°26'2513.2
2016-Nov-22 13:33S 36°32' E 175°56'6211.8
2016-Nov-22 08:18S 37°32' E 176°15'7 7.9
2016-Nov-22 07:22S 37°38' E 176°11'0 0.0
2016-Nov-22 05:31S 37°38' E 176°11'0 0.0
2016-Nov-22 04:31S 37°38' E 176°11'0 0.0
2016-Nov-22 03:28S 37°38' E 176°11'0 0.0
2016-Nov-22 02:33S 37°38' E 176°11'0 0.0
2016-Nov-21 23:29S 37°38' E 176°11'0 0.0
2016-Nov-21 21:32S 37°38' E 176°11'  
Track history (hours):
 
Tides and Currents Weather Stations Pressure Air Temp Water Temp Dewpoint Dewpoint Depression Visibility Wind Speed Wind Dir Waves Ship Positions

Celebrity Solstice

Last reported at 2016-Dec-01 15:00 UTC. Time now 2016-Dec-03 19:42 UTC.
Position S 44°12' E 166°18'.

Length 317 m; draft 9 m.

Type: Passenger vessel. MMSI: 249409000.

Wind from 200 at 22 knots

Barometer 1018.0 mb
Air temperature 15.0 ° C

Date/timePositionNaut miles runAvg speedWind from/ knotsBaromVisibWave heightAir tempDewpointWater temp
2016-Dec-01 15:00S 44°12' E 166°18'21918.3 200 / 221018.0 15.0
2016-Dec-01 03:00S 43°18' E 161°24'20917.5 030 / 101019.0 14.0
2016-Nov-30 15:00S 42°24' E 156°48'22318.6 190 / 51018.0 15.0
2016-Nov-30 03:00S 41°24' E 152°00'30421.8 050 / 251013.0 17.0
2016-Nov-29 13:05S 39°22' E 145°55'1221.7
2016-Nov-29 12:33S 39°14' E 145°43'2221.7
2016-Nov-29 11:33S 38°60' E 145°23'21 0.9
2016-Nov-28 12:21S 39°03' E 145°50'1316.2
2016-Nov-28 11:33S 39°10' E 146°04'1615.7
2016-Nov-28 10:33S 39°10' E 146°25'1616.2
2016-Nov-28 09:34S 39°05' E 146°44'1616.2
2016-Nov-28 08:33S 38°60' E 147°04'1616.3
2016-Nov-28 07:33S 38°55' E 147°24'2116.2
2016-Nov-28 06:14S 38°48' E 147°50'2520.0
2016-Nov-28 05:00S 38°36' E 148°18'5014.5 230 / 181015.0 22.0
2016-Nov-28 01:32S 38°09' E 149°12'1616.3
2016-Nov-28 00:33S 37°59' E 149°28'4016.6
2016-Nov-27 22:08S 37°33' E 150°07'916.2
2016-Nov-27 21:33S 37°25' E 150°12'1616.3
2016-Nov-27 20:34S 37°09' E 150°17'1616.1
2016-Nov-27 19:33S 36°54' E 150°23'1717.2
2016-Nov-27 18:34S 36°37' E 150°30'1717.0
2016-Nov-27 17:33S 36°21' E 150°36'1526.9
2016-Nov-27 17:00S 36°06' E 150°36'50710.6 010 / 141017.0 19.0
2016-Nov-25 17:00S 34°00' E 160°36'24917.8 230 / 281014.0 19.0
2016-Nov-25 03:00S 34°06' E 165°36'47012.4 230 / 221010.0 20.0
2016-Nov-23 13:10S 35°24' E 175°00'913.6
2016-Nov-23 12:29S 35°34' E 175°01'2613.6
2016-Nov-23 10:33S 35°60' E 174°58'1413.6
2016-Nov-23 09:32S 36°13' E 174°56'1313.2
2016-Nov-23 08:33S 36°26' E 174°60'1312.9
2016-Nov-23 07:33S 36°38' E 174°56'1111.3
2016-Nov-23 06:33S 36°48' E 174°50'3 1.1
2016-Nov-23 03:30S 36°50' E 174°46'0 0.0
2016-Nov-23 02:30S 36°50' E 174°46'0 0.0
2016-Nov-23 00:06S 36°50' E 174°46'0 0.0
2016-Nov-22 23:30S 36°50' E 174°46'0 0.0
2016-Nov-22 22:18S 36°50' E 174°46'0 0.0
2016-Nov-22 20:33S 36°50' E 174°46'5 4.5
2016-Nov-22 19:28S 36°46' E 174°49'1910.1
2016-Nov-22 17:34S 36°32' E 175°05'1310.3
2016-Nov-22 16:21S 36°23' E 175°16'8 9.2
2016-Nov-22 15:28S 36°23' E 175°26'2513.2
2016-Nov-22 13:33S 36°32' E 175°56'6211.8
2016-Nov-22 08:18S 37°32' E 176°15'7 7.9
2016-Nov-22 07:22S 37°38' E 176°11'0 0.0
2016-Nov-22 05:31S 37°38' E 176°11'0 0.0
2016-Nov-22 04:31S 37°38' E 176°11'0 0.0
2016-Nov-22 03:28S 37°38' E 176°11'0 0.0
2016-Nov-22 02:33S 37°38' E 176°11'0 0.0
2016-Nov-21 23:29S 37°38' E 176°11'0 0.0
2016-Nov-21 21:32S 37°38' E 176°11'  

Dump ship's entire track history